Wetterdaten: aktuell Mittwoch, 06.05.2026 18:04
Datum Zeit Temp. A. Feuchte A. Luftdruck Regen Wind Richtung Richtung Taupunkt Windchill
06.05.2026 18:04 17,9 °C 51 % 998,0 hPa 0,0 l/m² 6,7 km/h (2 Bft) NW±22.5° 315 ° 7,6 °C 17,8 °C
06.05.2026 18:02 18,0 °C 50 % 998,0 hPa 0,0 l/m² 3,6 km/h (1 Bft) W-NW±45° 300 ° 7,4 °C 18,0 °C
06.05.2026 18:01 18,0 °C 50 % 998,0 hPa 0,0 l/m² 4,5 km/h (1 Bft) NW±22.5° 320 ° 7,4 °C 18,0 °C
06.05.2026 17:59 18,0 °C 50 % 998,0 hPa 0,0 l/m² 10,8 km/h (2 Bft) NW±22.5° 325 ° 7,4 °C 16,1 °C
06.05.2026 17:57 18,1 °C 50 % 998,0 hPa 0,0 l/m² 10,8 km/h (2 Bft) NW±22.5° 325 ° 7,5 °C 16,3 °C
06.05.2026 17:55 18,1 °C 49 % 998,0 hPa 0,0 l/m² 3,7 km/h (1 Bft) NW±22.5° 325 ° 7,2 °C 18,1 °C
06.05.2026 17:53 18,1 °C 49 % 998,0 hPa 0,0 l/m² 5,1 km/h (1 Bft) NW 315 ° 7,2 °C 18,1 °C
06.05.2026 17:51 18,1 °C 48 % 998,0 hPa 0,0 l/m² 4,6 km/h (1 Bft) NW 305 ° 6,9 °C 18,1 °C
06.05.2026 17:49 18,2 °C 47 % 998,0 hPa 0,0 l/m² 4,6 km/h (1 Bft) NW 305 ° 6,7 °C 18,2 °C
06.05.2026 17:47 18,2 °C 47 % 998,0 hPa 0,0 l/m² 3,5 km/h (1 Bft) NW 305 ° 6,7 °C 18,2 °C
06.05.2026 17:45 18,2 °C 47 % 998,0 hPa 0,0 l/m² 9,4 km/h (2 Bft) NW±22.5° 325 ° 6,7 °C 16,9 °C
06.05.2026 17:43 18,3 °C 46 % 998,0 hPa 0,0 l/m² 9,4 km/h (2 Bft) NW±22.5° 325 ° 6,5 °C 17,0 °C
06.05.2026 17:41 18,3 °C 46 % 998,0 hPa 0,0 l/m² 2,0 km/h (1 Bft) NW 325 ° 6,5 °C 18,3 °C
06.05.2026 17:39 18,3 °C 45 % 998,0 hPa 0,0 l/m² 3,8 km/h (1 Bft) NW 320 ° 6,2 °C 18,3 °C
06.05.2026 17:37 18,4 °C 45 % 998,0 hPa 0,0 l/m² 2,8 km/h (1 Bft) NW 315 ° 6,3 °C 18,4 °C
06.05.2026 17:35 18,4 °C 45 % 998,0 hPa 0,0 l/m² 2,8 km/h (1 Bft) NW 315 ° 6,3 °C 18,4 °C
06.05.2026 17:33 18,4 °C 45 % 998,0 hPa 0,0 l/m² 1,1 km/h (1 Bft) NW 315 ° 6,3 °C 18,4 °C
06.05.2026 17:31 18,5 °C 45 % 998,0 hPa 0,0 l/m² 0,1 km/h (0 Bft) NW 310 ° 6,3 °C 18,5 °C
06.05.2026 17:29 18,5 °C 45 % 998,0 hPa 0,0 l/m² 0,1 km/h (0 Bft) NW 310 ° 6,3 °C 18,5 °C
06.05.2026 17:27 18,6 °C 44 % 998,0 hPa 0,0 l/m² 0,0 km/h (0 Bft) NW 310 ° 6,1 °C 18,6 °C
06.05.2026 17:24 18,6 °C 44 % 998,0 hPa 0,0 l/m² 0,6 km/h (0 Bft) NW 315 ° 6,1 °C 18,6 °C
06.05.2026 17:23 18,6 °C 44 % 998,0 hPa 0,0 l/m² 0,3 km/h (0 Bft) NW 325 ° 6,1 °C 18,6 °C
06.05.2026 17:21 18,7 °C 44 % 998,0 hPa 0,0 l/m² 0,3 km/h (0 Bft) NW 325 ° 6,2 °C 18,7 °C
06.05.2026 17:19 18,8 °C 43 % 997,9 hPa 0,0 l/m² 3,4 km/h (1 Bft) NW 325 ° 6,0 °C 18,8 °C
06.05.2026 17:17 19,0 °C 42 % 997,9 hPa 0,0 l/m² 1,3 km/h (1 Bft) NW±22.5° 310 ° 5,8 °C 19,0 °C
06.05.2026 17:15 19,0 °C 42 % 997,9 hPa 0,0 l/m² 1,9 km/h (1 Bft) N-NO±22.5° 25 ° 5,8 °C 19,0 °C
06.05.2026 17:13 19,1 °C 41 % 997,9 hPa 0,0 l/m² 1,9 km/h (1 Bft) N-NO±22.5° 25 ° 5,5 °C 19,1 °C
06.05.2026 17:11 19,1 °C 41 % 997,9 hPa 0,0 l/m² 3,9 km/h (1 Bft) O±45° 80 ° 5,5 °C 19,1 °C
06.05.2026 17:09 19,1 °C 41 % 997,9 hPa 0,0 l/m² 3,1 km/h (1 Bft) O-SO±22.5° 110 ° 5,5 °C 19,1 °C
06.05.2026 17:07 19,2 °C 41 % 997,9 hPa 0,0 l/m² 3,1 km/h (1 Bft) O-SO±22.5° 110 ° 5,6 °C 19,2 °C
06.05.2026 17:05 19,4 °C 40 % 997,9 hPa 0,0 l/m² 0,9 km/h (0 Bft) N±45° 5 ° 5,5 °C 19,4 °C
06.05.2026 17:03 19,4 °C 40 % 997,9 hPa 0,0 l/m² 2,3 km/h (1 Bft) NW 325 ° 5,5 °C 19,4 °C
06.05.2026 17:01 19,5 °C 40 % 997,9 hPa 0,0 l/m² 6,1 km/h (2 Bft) NW 325 ° 5,5 °C 19,5 °C
06.05.2026 16:59 19,8 °C 39 % 997,9 hPa 0,0 l/m² 6,1 km/h (2 Bft) NW 325 ° 5,4 °C 19,8 °C
06.05.2026 16:57 19,8 °C 39 % 997,9 hPa 0,0 l/m² 4,8 km/h (1 Bft) W±67.5° 275 ° 5,4 °C 19,8 °C
06.05.2026 16:55 19,8 °C 39 % 997,9 hPa 0,0 l/m² 3,4 km/h (1 Bft) NW±22.5° 305 ° 5,4 °C 19,8 °C
06.05.2026 16:53 20,0 °C 39 % 997,9 hPa 0,0 l/m² 3,1 km/h (1 Bft) N-NO±67.5° 15 ° 5,6 °C 20,0 °C
06.05.2026 16:51 20,0 °C 39 % 997,9 hPa 0,0 l/m² 3,1 km/h (1 Bft) N-NO±67.5° 15 ° 5,6 °C 20,0 °C
06.05.2026 16:49 20,1 °C 39 % 997,9 hPa 0,0 l/m² 0,6 km/h (0 Bft) NO±67.5° 50 ° 5,7 °C 20,1 °C
06.05.2026 16:47 20,2 °C 39 % 997,9 hPa 0,0 l/m² 3,9 km/h (1 Bft) NO±45° 45 ° 5,8 °C 20,2 °C
06.05.2026 16:44 20,2 °C 39 % 997,9 hPa 0,0 l/m² 3,9 km/h (1 Bft) NO±45° 45 ° 5,8 °C 20,2 °C
_ Min-Zeit 06:17 15:37 15:35 - 00:00 - - 15:03 06:17
Minimum _ 13,3 °C 36 % 997,9 hPa - 0,0 km/h (0 Bft) - - 4,9 °C 13,3 °C
_ Max-Zeit 15:35 02:14 03:29 00:45 13:27 - - 00:00 15:29
Maximum _ 21,1 °C 86 % 999,1 hPa 0,4 l/m² 12,0 km/h
S-SO (2 Bft)
- - 12,5 °C 20,9 °C
Durchschnitt _ 16,5 °C 66 % 998,2 hPa #2,9 l/m² 3,4 km/h (1 Bft) SO - 9,4 °C 16,3 °C